Concepcion del Uruguay, Argentina
Current Conditions -  °F | °C
As of 1:00 PM on Friday 24 Oct 2014 (Local Time) from SUSO Reporting Station
Clear Clear  
Wind Chill: 30°   Ceiling: Unl
Heat Index: 30°   Visibility: 6mi
Dew Point: 14°   Wind: 12mph
Humidity: 37%   Direction: 120°ESE
Pressure: 29.91"   Gusts: NA
Location:  32.58°S, 58.58°W
Report Text: SUSO 241600Z 12010KT CAVOK 30/14 Q1013
Loading
Personal Weather Stations






























Interactive Weather Map
Tropical Storm Tracking
New forecast layout! Learn more

10-Day Weather Forecast

Advertisements
Track Severe Weather on mobile